Time;durP1;ratioP1;P1;durP2;ratioP2;P2;SDS_P1;SDS_P2;PMS_P1;PMS_P2;Temp;Humidity;BMP_temperature;BMP_pressure;BME280_temperature;BME280_humidity;BME280_pressure;Samples;Min_cycle;Max_cycle;Signal;HPM_P1;HPM_P2
2022/07/14 00:02:08;;;;;;;3.00;0.50;;;;;;;20.04;100.00;98792.62;1655967;86;21159;-79
2022/07/14 00:04:35;;;;;;;1.60;0.57;;;;;;;19.90;100.00;98797.60;1660819;85;21124;-80
2022/07/14 00:07:05;;;;;;;4.47;0.72;;;;;;;19.97;100.00;98800.98;1658873;86;21026;-76
2022/07/14 00:09:38;;;;;;;0.98;0.53;;;;;;;19.99;100.00;98802.78;1657375;85;21021;-84
2022/07/14 00:12:06;;;;;;;3.90;0.47;;;;;;;20.02;100.00;98800.58;1643914;86;21050;-80
2022/07/14 00:14:37;;;;;;;0.60;0.60;;;;;;;19.99;100.00;98804.19;1656129;86;21059;-78
2022/07/14 00:17:11;;;;;;;3.72;0.70;;;;;;;20.05;100.00;98805.39;1656262;85;21032;-79
2022/07/14 00:19:42;;;;;;;4.12;0.62;;;;;;;19.98;100.00;98808.19;1651772;86;21521;-81
2022/07/14 00:22:09;;;;;;;5.37;0.65;;;;;;;20.07;100.00;98800.20;1657316;86;21014;-76
2022/07/14 00:24:43;;;;;;;3.20;0.53;;;;;;;20.05;100.00;98816.57;1655585;86;21051;-83
2022/07/14 00:27:11;;;;;;;5.92;0.70;;;;;;;20.03;100.00;98817.53;1655982;85;21095;-76
2022/07/14 00:29:45;;;;;;;1.75;0.65;;;;;;;20.00;100.00;98818.34;1654894;84;21091;-81
2022/07/14 00:32:16;;;;;;;1.10;0.50;;;;;;;19.98;100.00;98819.37;1657484;85;21038;-80
2022/07/14 00:34:48;;;;;;;1.85;0.60;;;;;;;19.96;100.00;98815.55;1658607;85;21078;-79
2022/07/14 00:37:17;;;;;;;0.62;0.50;;;;;;;19.93;100.00;98821.36;1655732;85;21095;-82
2022/07/14 00:39:57;;;;;;;6.25;1.10;;;;;;;20.00;100.00;98818.34;1653172;84;21659;-84
2022/07/14 00:42:38;;;;;;;1.50;0.70;;;;;;;19.99;100.00;98820.95;1648484;86;21152;-84
2022/07/14 00:45:13;;;;;;;0.42;0.30;;;;;;;19.92;100.00;98821.77;1656494;86;21590;-77
2022/07/14 00:47:44;;;;;;;4.95;0.70;;;;;;;19.89;100.00;98821.95;1648273;86;21001;-83
2022/07/14 00:50:11;;;;;;;1.10;0.70;;;;;;;19.82;100.00;98815.77;1658644;86;21404;-85
2022/07/14 00:52:42;;;;;;;5.20;0.68;;;;;;;19.76;100.00;98822.16;1652691;85;21030;-79
2022/07/14 00:55:14;;;;;;;3.40;0.60;;;;;;;19.75;100.00;98823.37;1659186;85;21072;-78
2022/07/14 00:57:43;;;;;;;3.10;0.60;;;;;;;19.74;100.00;98822.56;1657747;85;21090;-83
2022/07/14 01:00:14;;;;;;;1.57;0.72;;;;;;;19.76;100.00;98821.57;1672663;83;21010;-79
2022/07/14 01:02:42;;;;;;;6.20;0.75;;;;;;;19.77;100.00;98825.95;1713561;82;21007;-76
2022/07/14 01:05:09;;;;;;;2.55;0.68;;;;;;;19.78;100.00;98829.55;1716031;82;21078;-81
2022/07/14 01:07:38;;;;;;;1.42;0.45;;;;;;;19.77;100.00;98817.56;1719960;82;21123;-79
2022/07/14 01:10:06;;;;;;;2.08;0.90;;;;;;;19.77;100.00;98822.38;1718363;82;21018;-81
2022/07/14 01:12:36;;;;;;;3.80;0.57;;;;;;;19.75;100.00;98829.77;1720465;82;21049;-80
2022/07/14 01:15:03;;;;;;;3.30;0.50;;;;;;;19.77;100.00;98836.35;1714369;82;21003;-81
2022/07/14 01:17:32;;;;;;;0.68;0.60;;;;;;;19.73;100.00;98834.14;1716574;82;20959;-82
2022/07/14 01:19:58;;;;;;;0.80;0.40;;;;;;;19.75;100.00;98840.14;1717186;81;21548;-79
2022/07/14 01:22:25;;;;;;;2.77;0.60;;;;;;;19.80;100.00;98829.95;1716848;82;21587;-82
2022/07/14 01:25:01;;;;;;;1.65;0.62;;;;;;;19.76;100.00;98841.72;1715287;82;21039;-77
2022/07/14 01:27:29;;;;;;;0.57;0.57;;;;;;;19.79;100.00;98836.75;1716871;82;21012;-83
2022/07/14 01:29:57;;;;;;;1.17;0.62;;;;;;;19.79;100.00;98842.34;1714757;82;21048;-82
2022/07/14 01:32:24;;;;;;;2.58;1.10;;;;;;;19.81;100.00;98842.13;1717035;82;21812;-80
2022/07/14 01:34:52;;;;;;;8.75;0.78;;;;;;;19.80;100.00;98849.52;1714976;82;21043;-72
2022/07/14 01:37:23;;;;;;;4.75;0.70;;;;;;;19.82;100.00;98849.92;1714766;82;21524;-74
2022/07/14 01:39:50;;;;;;;0.40;0.40;;;;;;;19.82;100.00;98848.53;1710880;82;21059;-83
2022/07/14 01:42:19;;;;;;;1.77;0.80;;;;;;;19.82;100.00;98845.73;1712722;82;21191;-79
2022/07/14 01:44:48;;;;;;;2.70;0.60;;;;;;;19.82;100.00;98851.32;1718203;82;21108;-79
2022/07/14 01:47:15;;;;;;;2.47;0.70;;;;;;;19.79;100.00;98848.71;1713993;82;21059;-79
2022/07/14 01:49:47;;;;;;;2.35;0.60;;;;;;;19.79;100.00;98854.30;1711596;82;21037;-83
2022/07/14 01:52:14;;;;;;;0.72;0.60;;;;;;;19.78;100.00;98847.12;1716976;82;21042;-79
2022/07/14 01:54:41;;;;;;;4.87;0.95;;;;;;;19.72;100.00;98847.92;1720305;82;21081;-84
2022/07/14 01:57:12;;;;;;;0.40;0.40;;;;;;;19.72;100.00;98849.33;1722096;82;21857;-80
2022/07/14 01:59:43;;;;;;;3.62;0.40;;;;;;;19.73;100.00;98857.30;1727779;82;21038;-79
2022/07/14 02:02:14;;;;;;;1.02;0.65;;;;;;;19.76;100.00;98864.08;1730199;82;20974;-81
2022/07/14 02:04:41;;;;;;;0.98;0.60;;;;;;;19.78;100.00;98866.69;1704225;82;21042;-83
2022/07/14 02:07:18;;;;;;;2.67;0.50;;;;;;;19.82;100.00;98863.90;1733349;82;21530;-81
2022/07/14 02:12:45;;;;;;;1.02;0.70;;;;;;;19.85;100.00;98871.48;1726646;82;21058;-82
2022/07/14 02:15:14;;;;;;;4.72;0.80;;;;;;;19.89;100.00;98882.66;1734011;82;21055;-77
2022/07/14 02:17:48;;;;;;;1.15;0.85;;;;;;;19.92;100.00;98879.87;1731021;81;21036;-83
2022/07/14 02:20:18;;;;;;;2.65;0.88;;;;;;;19.93;100.00;98879.25;1736810;81;21032;-80
2022/07/14 02:22:46;;;;;;;3.90;0.70;;;;;;;19.92;100.00;98882.66;1727064;81;21192;-83
2022/07/14 02:25:13;;;;;;;1.27;0.60;;;;;;;19.89;100.00;98882.04;1734821;81;21007;-82
2022/07/14 02:27:47;;;;;;;1.10;0.68;;;;;;;19.94;100.00;98894.22;1736032;81;21019;-78
2022/07/14 02:30:15;;;;;;;6.27;0.90;;;;;;;19.96;100.00;98889.63;1734900;81;20994;-83
2022/07/14 02:32:41;;;;;;;0.55;0.55;;;;;;;19.98;100.00;98892.83;1732963;81;21029;-78
2022/07/14 02:35:18;;;;;;;10.78;1.22;;;;;;;20.00;100.00;98893.82;1734699;81;21057;-82
2022/07/14 02:37:45;;;;;;;3.80;0.90;;;;;;;19.91;100.00;98898.41;1732021;81;21076;-80
2022/07/14 02:40:12;;;;;;;1.37;0.78;;;;;;;19.97;100.00;98900.22;1735277;81;21015;-78
2022/07/14 02:42:39;;;;;;;0.80;0.60;;;;;;;19.95;100.00;98906.21;1733499;81;21068;-80
2022/07/14 02:45:09;;;;;;;4.47;0.80;;;;;;;19.93;100.00;98904.41;1730780;81;21019;-83
2022/07/14 02:47:39;;;;;;;1.37;0.93;;;;;;;19.90;100.00;98903.22;1721327;81;21740;-71
2022/07/14 02:50:07;;;;;;;1.62;0.85;;;;;;;19.89;100.00;98917.59;1732364;81;21021;-83
2022/07/14 02:52:35;;;;;;;1.20;0.65;;;;;;;19.80;100.00;98919.38;1727129;81;21572;-79
2022/07/14 02:55:08;;;;;;;2.87;0.88;;;;;;;19.86;100.00;98916.38;1732949;81;21091;-80
2022/07/14 02:57:37;;;;;;;3.02;0.60;;;;;;;19.89;100.00;98914.19;1736612;81;20947;-70
2022/07/14 03:00:08;;;;;;;2.35;0.70;;;;;;;19.89;100.00;98921.17;1738550;82;21123;-82
2022/07/14 03:02:36;;;;;;;1.45;0.80;;;;;;;20.00;100.00;98922.58;1737774;81;20987;-78
2022/07/14 03:05:08;;;;;;;4.90;0.82;;;;;;;19.93;100.00;98926.17;1738181;82;21058;-71
2022/07/14 03:07:38;;;;;;;2.55;0.80;;;;;;;19.94;100.00;98934.75;1739031;81;20988;-78
2022/07/14 03:10:08;;;;;;;2.62;0.70;;;;;;;19.98;100.00;98929.78;1736158;82;20991;-83
2022/07/14 03:12:35;;;;;;;2.37;1.10;;;;;;;19.94;100.00;98932.58;1733052;81;21529;-81
2022/07/14 03:15:08;;;;;;;2.50;0.60;;;;;;;19.96;100.00;98925.97;1735176;82;21011;-85
2022/07/14 03:17:38;;;;;;;0.90;0.80;;;;;;;19.87;100.00;98923.59;1739218;81;21022;-83
2022/07/14 03:20:07;;;;;;;2.35;0.78;;;;;;;19.83;100.00;98926.97;1733607;82;21534;-84
2022/07/14 03:22:34;;;;;;;1.77;0.80;;;;;;;19.81;100.00;98937.15;1738540;82;22188;-83
2022/07/14 03:25:05;;;;;;;1.50;0.90;;;;;;;19.83;100.00;98943.73;1740115;81;21086;-81
2022/07/14 03:27:35;;;;;;;3.67;0.95;;;;;;;19.80;100.00;98945.34;1720763;82;21192;-84
2022/07/14 03:30:07;;;;;;;1.00;0.80;;;;;;;19.82;100.00;98953.33;1735010;82;21018;-80
2022/07/14 03:32:38;;;;;;;9.20;0.98;;;;;;;19.81;100.00;98955.31;1736269;80;21042;-81
2022/07/14 03:35:08;;;;;;;0.82;0.70;;;;;;;19.82;100.00;98957.52;1731941;80;21524;-83
2022/07/14 03:37:43;;;;;;;6.42;1.20;;;;;;;19.82;100.00;98958.91;1721907;82;21589;-77
2022/07/14 03:40:12;;;;;;;1.57;0.95;;;;;;;19.82;100.00;98969.48;1739565;82;21058;-81
2022/07/14 03:42:40;;;;;;;1.30;0.90;;;;;;;19.80;100.00;98965.50;1738488;81;21011;-80
2022/07/14 03:45:12;;;;;;;0.82;0.70;;;;;;;19.79;100.00;98969.50;1736181;82;21034;-80
2022/07/14 03:47:42;;;;;;;1.80;0.95;;;;;;;19.81;100.00;98970.69;1740033;82;21049;-85
2022/07/14 03:50:10;;;;;;;2.95;1.12;;;;;;;19.81;100.00;98973.48;1739460;82;21025;-81
2022/07/14 03:52:40;;;;;;;3.45;0.98;;;;;;;19.82;100.00;98971.49;1733772;82;21097;-83
2022/07/14 03:55:09;;;;;;;1.52;0.75;;;;;;;19.81;100.00;98974.06;1738646;81;20999;-81
2022/07/14 03:57:35;;;;;;;3.52;0.90;;;;;;;19.77;100.00;98971.27;1740690;81;21594;-82
2022/07/14 04:00:05;;;;;;;2.60;0.75;;;;;;;19.66;100.00;98967.06;1736422;82;21055;-83
2022/07/14 04:02:34;;;;;;;4.28;0.85;;;;;;;19.71;100.00;98972.86;1738652;82;21306;-84
2022/07/14 04:05:01;;;;;;;8.85;0.80;;;;;;;19.73;100.00;98977.46;1733076;82;21601;-81
2022/07/14 04:07:31;;;;;;;4.90;0.82;;;;;;;19.78;100.00;98977.07;1737937;82;21158;-81
2022/07/14 04:09:59;;;;;;;2.12;1.30;;;;;;;19.82;100.00;98977.08;1737345;82;20967;-84
2022/07/14 04:12:26;;;;;;;5.28;1.37;;;;;;;19.90;100.00;98980.09;1731913;81;21511;-82
2022/07/14 04:14:55;;;;;;;1.42;0.85;;;;;;;20.00;100.00;98978.49;1736746;81;21143;-82
2022/07/14 04:17:22;;;;;;;1.32;1.10;;;;;;;20.04;100.00;98978.53;1742331;80;21050;-76
2022/07/14 04:19:50;;;;;;;1.45;1.35;;;;;;;20.14;100.00;98985.32;1739026;81;21069;-83
2022/07/14 04:22:19;;;;;;;3.95;1.30;;;;;;;20.22;100.00;98986.11;1700987;83;21016;-74
2022/07/14 04:24:48;;;;;;;5.35;1.30;;;;;;;20.22;100.00;98990.30;1691063;83;21012;-73
2022/07/14 04:27:17;;;;;;;3.25;1.12;;;;;;;20.25;100.00;98990.93;1696491;83;21052;-83
2022/07/14 04:29:46;;;;;;;3.17;1.05;;;;;;;20.24;100.00;98996.30;1697948;83;21043;-84
2022/07/14 04:32:13;;;;;;;5.58;1.00;;;;;;;20.22;100.00;98999.50;1696599;83;21076;-80
2022/07/14 04:34:44;;;;;;;4.35;1.10;;;;;;;20.24;100.00;98998.51;1698625;83;21019;-85
2022/07/14 04:37:11;;;;;;;1.67;0.93;;;;;;;20.24;100.00;99009.70;1694893;83;21158;-80
2022/07/14 04:39:44;;;;;;;3.27;0.93;;;;;;;20.33;100.00;99007.09;1710918;82;21096;-76
2022/07/14 04:42:11;;;;;;;2.33;1.15;;;;;;;20.38;100.00;99003.31;1695390;83;21468;-80
2022/07/14 04:44:46;;;;;;;3.83;1.27;;;;;;;20.40;100.00;99007.11;1696129;83;21040;-86
2022/07/14 04:47:12;;;;;;;5.08;1.12;;;;;;;20.42;100.00;99011.09;1696080;83;21048;-79
2022/07/14 04:52:28;;;;;;;4.10;1.30;;;;;;;20.43;100.00;99016.09;1694104;83;21891;-77
2022/07/14 04:55:02;;;;;;;3.35;1.35;;;;;;;20.42;100.00;99012.48;1706050;82;21026;-78
2022/07/14 04:57:32;;;;;;;5.62;1.40;;;;;;;20.45;100.00;99019.30;1689072;83;21017;-71
2022/07/14 05:00:01;;;;;;;2.58;1.35;;;;;;;20.49;100.00;99024.89;1680454;83;21070;-76
2022/07/14 05:02:28;;;;;;;3.65;1.10;;;;;;;20.53;100.00;99025.08;1679673;84;21060;-71
2022/07/14 05:04:59;;;;;;;0.82;0.82;;;;;;;20.53;100.00;99027.88;1675696;83;21524;-80
2022/07/14 05:07:26;;;;;;;6.55;1.17;;;;;;;20.43;100.00;99035.08;1674931;83;21065;-81
2022/07/14 05:09:55;;;;;;;6.40;1.00;;;;;;;20.54;100.00;99038.45;1671869;84;21111;-83
2022/07/14 05:12:22;;;;;;;1.07;0.88;;;;;;;20.56;100.00;99038.86;1677819;83;21035;-82
2022/07/14 05:14:50;;;;;;;2.35;0.85;;;;;;;20.55;100.00;99044.27;1676154;83;21677;-81
2022/07/14 05:17:18;;;;;;;8.90;1.47;;;;;;;20.60;100.00;99041.06;1670364;84;21102;-80
2022/07/14 05:19:53;;;;;;;3.37;1.00;;;;;;;20.66;100.00;99040.05;1662448;84;21513;-83
2022/07/14 05:22:23;;;;;;;0.95;0.80;;;;;;;20.72;100.00;99034.86;1648840;85;21154;-71
2022/07/14 05:24:50;;;;;;;4.53;1.00;;;;;;;20.77;100.00;99035.26;1666953;84;21098;-78
2022/07/14 05:27:17;;;;;;;3.17;1.00;;;;;;;20.90;100.00;99035.63;1663199;83;21098;-82
2022/07/14 05:29:44;;;;;;;3.42;0.85;;;;;;;20.88;100.00;99045.64;1674571;85;21149;-74
2022/07/14 05:32:23;;;;;;;2.20;1.10;;;;;;;20.97;100.00;99047.44;1660076;82;21089;-76
2022/07/14 05:34:49;;;;;;;3.62;1.00;;;;;;;21.16;100.00;99042.00;1667925;84;21036;-81
2022/07/14 05:37:18;;;;;;;1.98;0.90;;;;;;;21.28;100.00;99046.96;1675103;83;21072;-76
2022/07/14 05:39:49;;;;;;;1.47;1.07;;;;;;;21.36;100.00;99040.75;1674945;84;21096;-79
2022/07/14 05:42:21;;;;;;;1.40;1.15;;;;;;;21.39;100.00;99046.31;1673578;84;21076;-77
2022/07/14 05:44:48;;;;;;;1.07;0.88;;;;;;;21.39;100.00;99046.94;1673894;84;21025;-83
2022/07/14 05:47:15;;;;;;;1.15;0.93;;;;;;;21.45;100.00;99045.30;1673865;84;21075;-82
2022/07/14 05:49:43;;;;;;;2.00;0.85;;;;;;;21.56;100.00;99045.27;1671629;84;21131;-84
2022/07/14 05:52:15;;;;;;;1.35;0.60;;;;;;;21.58;100.00;99048.44;1671377;84;21556;-83
2022/07/14 05:54:44;;;;;;;1.35;1.25;;;;;;;21.63;100.00;99047.23;1676570;84;21585;-78
2022/07/14 05:57:15;;;;;;;4.25;1.02;;;;;;;21.76;100.00;99047.56;1677067;84;21041;-80
2022/07/14 05:59:45;;;;;;;1.67;1.02;;;;;;;21.79;100.00;99042.56;1660480;83;21162;-80
2022/07/14 06:02:12;;;;;;;1.17;0.60;;;;;;;21.81;100.00;99049.97;1658833;86;21489;-79
2022/07/14 06:04:40;;;;;;;3.92;0.50;;;;;;;21.90;100.00;99045.32;1659390;85;21591;-81
2022/07/14 06:07:07;;;;;;;0.70;0.70;;;;;;;21.94;100.00;99048.88;1659791;86;21135;-82
2022/07/14 06:09:37;;;;;;;4.30;0.60;;;;;;;22.05;100.00;99043.22;1661391;85;21019;-83
2022/07/14 06:12:06;;;;;;;4.00;1.07;;;;;;;22.13;100.00;99047.57;1659842;85;21154;-82
2022/07/14 06:14:43;;;;;;;5.95;0.93;;;;;;;22.24;100.00;99051.72;1657549;86;21066;-84
2022/07/14 06:17:11;;;;;;;1.92;0.80;;;;;;;22.34;100.00;99054.24;1647943;86;21056;-80
2022/07/14 06:19:37;;;;;;;0.90;0.90;;;;;;;22.45;100.00;99054.77;1660821;85;21105;-77
2022/07/14 06:22:05;;;;;;;2.67;1.22;;;;;;;22.53;100.00;99056.90;1659058;84;21139;-79
2022/07/14 06:24:33;;;;;;;0.98;0.88;;;;;;;22.50;100.00;99048.09;1654597;86;21035;-76
2022/07/14 06:27:07;;;;;;;1.02;0.82;;;;;;;22.49;100.00;99045.70;1638024;86;20996;-79
2022/07/14 06:29:34;;;;;;;4.90;0.90;;;;;;;22.48;100.00;99052.53;1658085;85;20987;-79
2022/07/14 06:32:05;;;;;;;1.85;0.78;;;;;;;22.43;100.00;99050.98;1655668;85;21568;-85
2022/07/14 06:34:34;;;;;;;2.12;1.25;;;;;;;22.43;100.00;99044.55;1658779;85;21122;-83
2022/07/14 06:37:18;;;;;;;1.50;0.80;;;;;;;22.45;100.00;99049.16;1658763;85;21563;-79
2022/07/14 06:39:45;;;;;;;2.58;0.72;;;;;;;22.46;100.00;99055.76;1658934;85;21583;-83
2022/07/14 06:42:13;;;;;;;3.72;0.95;;;;;;;22.52;100.00;99060.30;1659655;86;21043;-82
2022/07/14 06:44:42;;;;;;;2.25;0.85;;;;;;;22.68;100.00;99053.39;1658857;86;21351;-83
2022/07/14 06:47:12;;;;;;;7.17;1.00;;;;;;;22.77;100.00;99045.89;1658180;85;21079;-82
2022/07/14 06:49:43;;;;;;;1.75;0.72;;;;;;;22.83;100.00;99050.64;1659109;85;21051;-83
2022/07/14 06:52:12;;;;;;;3.85;0.82;;;;;;;22.89;100.00;99060.02;1658039;85;21083;-81
2022/07/14 06:54:39;;;;;;;1.70;0.72;;;;;;;23.01;100.00;99050.27;1658709;85;21055;-83
2022/07/14 06:57:05;;;;;;;2.00;0.78;;;;;;;23.09;100.00;99044.17;1658960;85;21089;-82
2022/07/14 06:59:37;;;;;;;4.00;0.70;;;;;;;23.18;100.00;99045.69;1658399;84;21070;-80
2022/07/14 07:02:04;;;;;;;7.97;0.70;;;;;;;23.28;100.00;99051.79;1658561;86;21094;-80
2022/07/14 07:04:35;;;;;;;0.98;0.80;;;;;;;23.36;100.00;99048.27;1657757;85;21072;-80
2022/07/14 07:07:01;;;;;;;0.70;0.62;;;;;;;23.44;100.00;99053.25;1659502;85;21027;-80
2022/07/14 07:09:29;;;;;;;1.70;0.50;;;;;;;23.49;100.00;99047.13;1656035;86;21909;-74
2022/07/14 07:12:05;;;;;;;5.37;1.00;;;;;;;23.58;100.00;99048.84;1658726;85;21076;-79
2022/07/14 07:14:34;;;;;;;5.50;1.25;;;;;;;23.66;100.00;99048.75;1658420;86;21063;-77
2022/07/14 07:17:01;;;;;;;3.05;0.75;;;;;;;23.73;100.00;99048.64;1658961;85;21083;-77
2022/07/14 07:19:33;;;;;;;1.72;0.80;;;;;;;23.83;100.00;99051.14;1659374;84;21563;-81
2022/07/14 07:22:00;;;;;;;3.90;0.80;;;;;;;23.94;100.00;99053.78;1658528;84;21639;-72
2022/07/14 07:24:26;;;;;;;2.35;0.95;;;;;;;24.03;100.00;99063.91;1659539;84;21043;-78
2022/07/14 07:26:56;;;;;;;1.98;0.75;;;;;;;24.09;100.00;99069.06;1658005;84;21035;-69
2022/07/14 07:29:24;;;;;;;2.25;0.82;;;;;;;24.06;100.00;99053.22;1637636;86;21095;-77
2022/07/14 07:31:51;;;;;;;3.60;0.98;;;;;;;24.23;100.00;99054.80;1656445;86;21032;-79
2022/07/14 07:34:17;;;;;;;2.05;0.70;;;;;;;24.39;100.00;99056.98;1660320;86;21244;-77
2022/07/14 07:36:45;;;;;;;2.00;0.93;;;;;;;24.49;100.00;99056.61;1659952;86;21102;-73
2022/07/14 07:39:11;;;;;;;12.10;0.85;;;;;;;24.50;100.00;99053.16;1659878;86;21611;-77
2022/07/14 07:41:39;;;;;;;5.85;0.90;;;;;;;24.48;100.00;99050.00;1660199;86;21023;-79
2022/07/14 07:44:07;;;;;;;3.42;0.88;;;;;;;24.39;100.00;99043.50;1660317;86;21063;-78
2022/07/14 07:46:33;;;;;;;3.02;1.12;;;;;;;24.41;100.00;99041.84;1659882;85;21634;-79
2022/07/14 07:49:00;;;;;;;3.42;0.90;;;;;;;24.47;100.00;99039.34;1658728;84;21034;-78
2022/07/14 07:51:31;;;;;;;1.27;0.90;;;;;;;24.54;100.00;99043.45;1657901;85;21511;-79
2022/07/14 07:54:00;;;;;;;6.33;0.90;;;;;;;24.65;100.00;99040.44;1649167;86;21070;-82
2022/07/14 07:56:26;;;;;;;3.92;0.90;;;;;;;24.70;100.00;99046.81;1660267;85;21076;-76
2022/07/14 07:58:53;;;;;;;2.45;0.90;;;;;;;24.83;100.00;99046.38;1660420;85;21724;-78
2022/07/14 08:01:19;;;;;;;2.42;1.10;;;;;;;24.99;100.00;99051.97;1664712;84;21527;-72
2022/07/14 08:03:46;;;;;;;4.67;1.02;;;;;;;25.09;100.00;99047.34;1666884;84;21061;-75
2022/07/14 08:06:17;;;;;;;1.70;1.00;;;;;;;25.16;100.00;99048.63;1666269;84;21057;-74
2022/07/14 08:08:46;;;;;;;2.77;0.88;;;;;;;25.21;100.00;99055.78;1672190;83;21111;-74
2022/07/14 08:11:14;;;;;;;3.10;1.10;;;;;;;25.18;100.00;99063.06;1675378;83;21043;-76
2022/07/14 08:13:41;;;;;;;2.00;0.90;;;;;;;25.16;100.00;99057.86;1669442;84;21538;-76
2022/07/14 08:16:13;;;;;;;3.12;1.52;;;;;;;25.09;100.00;99051.58;1680120;83;21025;-81
2022/07/14 08:18:44;;;;;;;3.47;1.05;;;;;;;25.08;100.00;99050.77;1666072;84;21005;-79
2022/07/14 08:21:14;;;;;;;4.62;1.15;;;;;;;25.10;100.00;99053.96;1670908;83;21054;-78
2022/07/14 08:23:40;;;;;;;5.12;0.88;;;;;;;25.18;100.00;99055.23;1668036;84;21868;-78
2022/07/14 08:26:07;;;;;;;0.90;0.85;;;;;;;25.20;100.00;99063.42;1670008;83;21497;-77
2022/07/14 08:28:34;;;;;;;3.45;1.00;;;;;;;25.23;100.00;99061.15;1675660;83;21087;-78
2022/07/14 08:31:00;;;;;;;3.65;0.80;;;;;;;25.24;100.00;99062.76;1669063;83;21035;-79
2022/07/14 08:33:27;;;;;;;1.87;0.80;;;;;;;25.30;100.00;99054.58;1671006;83;21084;-76
2022/07/14 08:35:55;;;;;;;10.98;1.27;;;;;;;25.26;100.00;99058.09;1670908;83;21552;-76
2022/07/14 08:38:22;;;;;;;1.12;0.80;;;;;;;25.23;100.00;99059.74;1671884;83;21063;-79
2022/07/14 08:40:48;;;;;;;1.17;0.80;;;;;;;25.20;100.00;99052.79;1668569;84;21497;-81
2022/07/14 08:43:15;;;;;;;5.05;1.65;;;;;;;25.20;100.00;99062.02;1678122;83;21041;-78
2022/07/14 08:45:42;;;;;;;3.50;1.10;;;;;;;25.16;100.00;99057.86;1672657;83;21095;-76
2022/07/14 08:48:12;;;;;;;4.65;0.93;;;;;;;25.27;100.00;99057.66;1666815;85;21201;-78
2022/07/14 08:50:42;;;;;;;3.65;0.95;;;;;;;25.54;100.00;99058.73;1673412;84;21032;-80
2022/07/14 08:53:12;;;;;;;2.08;1.27;;;;;;;25.73;100.00;99060.58;1668608;83;21036;-78
2022/07/14 08:55:38;;;;;;;2.27;1.40;;;;;;;25.73;100.00;99064.81;1668878;85;21500;-81
2022/07/14 08:58:05;;;;;;;1.60;1.00;;;;;;;25.91;100.00;99060.20;1670170;85;21075;-78
2022/07/14 09:00:32;;;;;;;1.47;0.93;;;;;;;26.00;100.00;99057.56;1692682;82;21878;-69
2022/07/14 09:03:02;;;;;;;0.68;0.68;;;;;;;26.07;100.00;99064.27;1702608;83;21090;-75
2022/07/14 09:05:30;;;;;;;1.02;0.72;;;;;;;26.10;100.00;99067.66;1698660;82;21030;-75
2022/07/14 09:07:58;;;;;;;1.20;0.90;;;;;;;26.07;100.00;99065.68;1714768;80;21006;-79
2022/07/14 09:10:28;;;;;;;2.25;1.00;;;;;;;26.10;100.00;99057.77;1735580;80;21144;-79
2022/07/14 09:13:17;;;;;;;3.67;0.88;;;;;;;26.08;100.00;99065.27;1736233;80;21151;-78
2022/07/14 09:15:46;;;;;;;3.47;1.20;;;;;;;26.19;100.00;99057.14;1743061;80;21064;-78
2022/07/14 09:18:26;;;;;;;1.98;0.93;;;;;;;26.21;100.00;99062.54;1749402;80;21588;-82
2022/07/14 09:20:55;;;;;;;3.92;1.10;;;;;;;26.12;100.00;99062.34;1743283;80;21084;-68
2022/07/14 09:23:33;;;;;;;5.00;1.25;;;;;;;26.03;100.00;99060.75;1743227;81;21060;-76
2022/07/14 09:26:11;;;;;;;5.17;1.35;;;;;;;25.96;100.00;99070.98;1754070;81;21056;-78
2022/07/14 09:28:40;;;;;;;1.12;1.02;;;;;;;25.89;100.00;99075.36;1751545;81;21037;-75
2022/07/14 09:31:28;;;;;;;2.52;1.20;;;;;;;25.97;100.00;99073.97;1744607;80;22228;-75
2022/07/14 09:34:00;;;;;;;4.97;1.40;;;;;;;26.08;100.00;99076.55;1742806;81;21565;-79
2022/07/14 09:36:32;;;;;;;4.20;1.30;;;;;;;26.26;100.00;99069.69;1744965;80;21620;-81
2022/07/14 09:39:07;;;;;;;3.17;1.45;;;;;;;26.41;100.00;99070.16;1742827;80;21100;-72
2022/07/14 09:41:48;;;;;;;7.62;2.10;;;;;;;26.59;100.00;99070.34;1743160;80;21562;-77
2022/07/14 09:44:19;;;;;;;1.98;1.40;;;;;;;26.78;100.00;99073.51;1743325;80;21495;-69
2022/07/14 09:46:54;;;;;;;2.55;1.05;;;;;;;26.93;100.00;99076.14;1745961;80;21021;-76
2022/07/14 09:49:27;;;;;;;4.05;1.17;;;;;;;26.95;100.00;99071.45;1749769;80;21537;-77
2022/07/14 09:52:05;;;;;;;4.15;1.40;;;;;;;26.89;100.00;99061.91;1744528;80;21557;-72
2022/07/14 09:54:46;;;;;;;1.52;1.37;;;;;;;26.83;100.00;99068.12;1745285;80;21080;-78
2022/07/14 09:57:19;;;;;;;4.30;1.35;;;;;;;26.75;100.00;99068.11;1745462;82;21021;-76
2022/07/14 09:59:51;;;;;;;8.25;1.47;;;;;;;26.69;100.00;99070.70;1742732;81;21084;-77
2022/07/14 10:02:31;;;;;;;4.70;1.62;;;;;;;26.61;100.00;99074.30;1731291;81;21055;-68
2022/07/14 10:05:07;;;;;;;2.60;1.50;;;;;;;26.60;100.00;99071.92;1669050;84;21191;-78
2022/07/14 10:07:35;;;;;;;2.47;1.30;;;;;;;26.65;100.00;99063.55;1686313;83;21052;-79
2022/07/14 10:10:08;;;;;;;2.75;1.55;;;;;;;26.77;100.00;99067.70;1674010;85;21027;-79
2022/07/14 10:12:36;;;;;;;1.50;1.27;;;;;;;26.60;100.00;99069.90;1677333;83;21048;-68
2022/07/14 10:15:05;;;;;;;3.70;1.27;;;;;;;26.46;100.00;99071.69;1674218;83;21043;-77
2022/07/14 10:17:35;;;;;;;2.12;1.35;;;;;;;26.56;100.00;99069.82;1673836;84;21258;-77
2022/07/14 10:20:11;;;;;;;6.12;1.50;;;;;;;26.66;100.00;99070.17;1674328;84;21040;-75
2022/07/14 10:22:35;;;;;;;11.85;1.92;;;;;;;26.71;100.00;99069.64;1676353;83;21024;-71
2022/07/14 10:25:05;;;;;;;12.95;1.85;;;;;;;26.78;100.00;99071.48;1674061;83;21102;-76
2022/07/14 10:27:32;;;;;;;2.85;1.47;;;;;;;26.85;100.00;99077.56;1668607;83;21028;-77
2022/07/14 10:29:58;;;;;;;6.58;1.62;;;;;;;27.00;100.00;99077.17;1668572;84;21561;-73
2022/07/14 10:32:37;;;;;;;5.67;1.67;;;;;;;27.03;100.00;99077.11;1666161;84;21095;-71
2022/07/14 10:35:23;;;;;;;2.60;1.50;;;;;;;27.15;100.00;99078.41;1668805;84;21055;-73
2022/07/14 10:38:25;;;;;;;2.25;1.55;;;;;;;27.25;100.00;99076.52;1673954;83;21044;-72
2022/07/14 10:41:18;;;;;;;5.70;1.50;;;;;;;27.29;100.00;99069.36;1662839;83;21028;-75
2022/07/14 10:44:03;;;;;;;2.80;1.22;;;;;;;27.34;100.00;99076.68;1664993;83;21761;-73
2022/07/14 10:46:36;;;;;;;4.33;1.20;;;;;;;27.40;100.00;99068.42;1670290;83;21659;-76
2022/07/14 10:49:07;;;;;;;1.87;1.57;;;;;;;27.50;100.00;99070.77;1670281;83;21131;-77
2022/07/14 10:51:50;;;;;;;2.00;1.47;;;;;;;27.44;100.00;99071.16;1677471;83;21164;-79
2022/07/14 10:54:29;;;;;;;2.90;1.42;;;;;;;27.43;100.00;99077.42;1673106;84;21039;-77
2022/07/14 10:57:17;;;;;;;4.58;2.02;;;;;;;27.48;100.00;99076.72;1681789;83;21571;-75
2022/07/14 10:59:50;;;;;;;4.10;1.57;;;;;;;27.41;100.00;99083.37;1679691;83;21039;-76
2022/07/14 11:02:23;;;;;;;4.87;1.95;;;;;;;27.24;100.00;99077.77;1695097;83;21587;-78
2022/07/14 11:05:02;;;;;;;4.77;2.20;;;;;;;27.19;100.00;99080.50;1693471;83;21619;-72
2022/07/14 11:07:55;;;;;;;1.82;1.32;;;;;;;27.17;100.00;99073.11;1696874;83;21284;-74
2022/07/14 11:10:27;;;;;;;4.97;1.40;;;;;;;27.26;100.00;99075.27;1720589;82;21153;-75
2022/07/14 11:13:09;;;;;;;4.58;1.92;;;;;;;27.42;100.00;99075.84;1725741;82;21003;-77
2022/07/14 11:15:52;;;;;;;4.05;1.50;;;;;;;27.59;100.00;99075.77;1743957;80;20994;-76
2022/07/14 11:18:25;;;;;;;4.00;1.57;;;;;;;27.74;100.00;99066.91;1745903;80;21010;-80
2022/07/14 11:21:16;;;;;;;5.25;1.72;;;;;;;27.90;100.00;99072.47;1743345;80;21089;-76
2022/07/14 11:23:52;;;;;;;10.98;1.62;;;;;;;28.02;100.00;99079.38;1745501;80;21116;-74
2022/07/14 11:26:47;;;;;;;7.12;1.72;;;;;;;28.34;98.51;99076.02;1741464;80;21050;-76
2022/07/14 11:29:14;;;;;;;2.00;1.35;;;;;;;28.30;100.00;99064.78;1740036;80;21076;-71
2022/07/14 11:31:52;;;;;;;4.87;1.60;;;;;;;28.40;100.00;99064.28;1747717;80;21082;-73
2022/07/14 11:37:25;;;;;;;4.70;1.67;;;;;;;28.49;94.84;99053.69;1742418;80;21267;-76
2022/07/14 11:39:51;;;;;;;2.22;1.32;;;;;;;28.51;96.43;99049.75;1742595;81;21041;-77
2022/07/14 11:42:18;;;;;;;8.95;2.45;;;;;;;28.56;95.73;99056.26;1730929;80;21027;-78
2022/07/14 11:44:51;;;;;;;6.80;1.52;;;;;;;28.58;88.48;99055.80;1740630;81;21034;-75
2022/07/14 11:47:29;;;;;;;7.78;1.27;;;;;;;28.52;88.98;99052.16;1743715;81;21029;-76
2022/07/14 11:50:03;;;;;;;7.42;1.40;;;;;;;28.54;90.95;99050.28;1741534;80;21313;-70